createdAt,value
2022-08-17T00:01:19.315Z,71.9453101573173
2022-08-17T00:04:19.855Z,72.00554426778113
2022-08-17T00:07:16.703Z,72.43023685829755
2022-08-17T00:11:19.783Z,72.25231356809593
2022-08-17T00:14:18.331Z,72.63031390610064
2022-08-17T00:17:16.410Z,72.16107798667133
2022-08-17T00:31:15.579Z,74.92104302965598
2022-08-17T00:34:16.393Z,75.46923912832976
2022-08-17T00:37:15.838Z,75.21668369453803
2022-08-17T00:41:21.975Z,75.73074347309793
2022-08-17T00:44:16.826Z,75.9851182474899
2022-08-17T00:47:16.908Z,75.31988879162218
2022-08-17T00:51:20.118Z,75.40471996133374
2022-08-17T00:54:19.571Z,76.07641692950469
2022-08-17T00:57:19.102Z,76.46675021466866
2022-08-17T01:01:21.429Z,77.61209574669078
2022-08-17T01:04:18.899Z,79.86299721700233
2022-08-17T01:07:20.036Z,80.00261076906683
2022-08-17T01:11:17.379Z,78.24575469651012
2022-08-17T01:14:15.946Z,79.45756587910111
2022-08-17T01:17:16.442Z,78.813351434389
2022-08-17T01:21:23.415Z,78.8356063659575
2022-08-17T01:24:17.067Z,78.48824566144357
2022-08-17T01:27:18.471Z,78.13348484111457
2022-08-17T01:31:15.722Z,77.78236021645151
2022-08-17T01:34:18.575Z,77.85173400802388
2022-08-17T01:37:17.170Z,77.93178322510997
2022-08-17T01:41:18.421Z,77.67058551518167
2022-08-17T01:44:16.999Z,77.7273679769465
2022-08-17T01:47:16.178Z,78.29246838110129
2022-08-17T01:51:15.993Z,78.61712524884734
2022-08-17T01:54:17.997Z,78.85760571989597
2022-08-17T01:57:15.850Z,79.54967899419051
2022-08-17T02:01:18.279Z,79.35815003202394
2022-08-17T02:04:16.990Z,79.53044226691716
2022-08-17T02:07:17.101Z,79.03598737968703
2022-08-17T02:11:20.423Z,78.75233069232941
2022-08-17T02:14:16.139Z,80.14738868256802
2022-08-17T02:17:16.159Z,80.36245348081728
2022-08-17T02:21:16.405Z,81.84910177151433
2022-08-17T02:25:01.075Z,81.03000529371909
2022-08-17T02:27:16.582Z,80.3700297797406
2022-08-17T02:31:16.547Z,80.40955069442151
2022-08-17T02:34:17.289Z,80.65282888114797
2022-08-17T02:37:17.971Z,80.64424309812469
2022-08-17T02:41:15.995Z,81.5673501920359
2022-08-17T02:44:38.858Z,82.28326119809162
2022-08-17T02:47:16.287Z,82.4916719965223
2022-08-17T02:51:16.599Z,82.08028318346426
2022-08-17T02:54:40.818Z,82.85698856158281
2022-08-17T02:57:16.888Z,83.29841462541523
2022-08-17T03:01:16.326Z,82.9836824146146
2022-08-17T03:04:16.577Z,82.33108870856185
2022-08-17T03:07:16.563Z,82.76647629927193
2022-08-17T03:11:16.237Z,82.2137603679889
2022-08-17T03:14:17.004Z,81.66708616758189
2022-08-17T03:17:17.468Z,82.00583396816941
2022-08-17T03:21:16.204Z,81.863569535581
2022-08-17T03:24:18.104Z,82.03834500178193
2022-08-17T03:27:16.903Z,82.69170299472962
2022-08-17T03:31:15.773Z,82.09190675789397
2022-08-17T03:34:16.827Z,83.14170174193058
2022-08-17T03:37:16.370Z,83.7573398483225
2022-08-17T03:41:16.531Z,83.33390714939388
2022-08-17T03:44:16.532Z,84.4113994469977
2022-08-17T04:01:16.347Z,83.09943329582404
2022-08-17T04:04:16.754Z,83.73422149885963
2022-08-17T04:07:16.729Z,82.9298658080995
2022-08-17T04:11:15.573Z,81.56348183115945
2022-08-17T04:14:15.808Z,80.69930915715578
2022-08-17T04:17:15.936Z,80.99633562406939
2022-08-17T04:21:15.654Z,80.45115339423829
2022-08-17T04:24:15.932Z,77.9309702919659
2022-08-17T04:27:15.999Z,77.59701656093051
2022-08-17T04:31:16.630Z,78.26479072534737
2022-08-17T04:34:19.887Z,77.1830801496635
2022-08-17T04:37:16.732Z,76.77325902015527
2022-08-17T04:42:20.534Z,75.96044928210186
2022-08-17T04:44:36.886Z,76.9591186722209
2022-08-17T04:47:15.749Z,77.86675338031378
2022-08-17T04:51:19.093Z,78.69457431444732
2022-08-17T04:54:20.318Z,79.08678575424175
2022-08-17T04:57:16.463Z,79.74001560133169
2022-08-17T05:01:23.319Z,77.07501112881596
2022-08-17T05:04:33.035Z,75.72882602229444
2022-08-17T05:07:21.109Z,74.33853338619808
2022-08-17T05:11:16.780Z,74.41119862174077
2022-08-17T05:14:16.647Z,75.28993794496013
2022-08-17T05:17:16.642Z,76.50151863061141
2022-08-17T05:21:16.646Z,78.265423994541
2022-08-17T05:24:38.430Z,78.58691618404303
2022-08-17T05:27:18.832Z,79.52354184321479
2022-08-17T05:31:16.993Z,81.55855396348777
2022-08-17T05:34:16.619Z,82.50076758685356
2022-08-17T05:37:16.045Z,82.84249976307734
2022-08-17T05:41:16.434Z,82.64782178150212
2022-08-17T05:44:16.589Z,83.93388598623011
2022-08-17T05:47:17.552Z,84.74996046289289
2022-08-17T05:51:33.557Z,86.52005094328943
2022-08-17T05:54:30.379Z,86.72449029476938
2022-08-17T05:57:35.075Z,86.83924383683956
2022-08-17T06:01:31.820Z,86.93515420759246
2022-08-17T06:04:28.048Z,86.72288601597307
2022-08-17T06:07:23.182Z,86.52017001427868
2022-08-17T06:11:23.294Z,82.2974767617469
2022-08-17T06:14:28.585Z,80.21913686971735
2022-08-17T06:17:19.850Z,77.79693544842472
2022-08-17T06:21:18.999Z,77.73706278595385
2022-08-17T06:24:27.096Z,78.57187500676291
2022-08-17T06:27:24.400Z,79.96591971654996
2022-08-17T06:31:21.715Z,82.20430520836639
2022-08-17T06:34:16.274Z,83.91401164410965
2022-08-17T06:37:29.478Z,86.88806692437387
2022-08-17T06:41:24.644Z,87.3192760353716
2022-08-17T06:44:43.421Z,88.78695292035279
2022-08-17T06:47:27.969Z,89.86518955132124
2022-08-17T06:51:23.531Z,90.5251163157033
2022-08-17T06:54:25.035Z,91.17535691964162
2022-08-17T06:57:21.450Z,91.8348682683911
2022-08-17T07:01:20.337Z,91.07855457335765
2022-08-17T07:04:20.818Z,87.13884356985692
2022-08-17T07:08:40.387Z,85.55464342160914
2022-08-17T07:11:24.577Z,84.4117605997376
2022-08-17T07:14:29.839Z,83.22744563898907
2022-08-17T07:17:18.468Z,83.19332922781416
2022-08-17T07:21:26.628Z,83.16730761298263
2022-08-17T07:24:30.643Z,82.70872862724676
2022-08-17T07:27:19.416Z,82.54251851770772
2022-08-17T07:41:19.842Z,82.72904384403581
2022-08-17T07:44:16.308Z,81.90486607899962
2022-08-17T08:01:18.228Z,75.63587749266583
2022-08-17T08:04:49.956Z,72.94572572040471
2022-08-17T08:07:25.033Z,72.33634759079956
2022-08-17T08:41:28.838Z,62.97343761280105
2022-08-17T08:44:59.797Z,59.73653209790521
2022-08-17T08:47:35.578Z,58.831739080401505
2022-08-17T08:51:25.974Z,57.60886620158484
2022-08-17T08:54:27.615Z,56.00877847771068
2022-08-17T08:57:29.018Z,55.94231959561716
2022-08-17T09:01:21.950Z,55.16312709544823
2022-08-17T09:05:13.467Z,53.798466333390074
2022-08-17T09:07:30.898Z,51.866459484258066
2022-08-17T09:11:24.123Z,50.577468962145375
2022-08-17T09:14:28.523Z,48.461197296131225
2022-08-17T09:17:20.362Z,48.03540754118857
2022-08-17T09:21:23.023Z,46.97722905734694
2022-08-17T09:24:21.872Z,45.86474258073013
2022-08-17T09:27:21.113Z,46.100467804707094
2022-08-17T09:41:23.098Z,51.86544210057977
2022-08-17T09:44:25.937Z,50.66011528637038
2022-08-17T09:47:26.163Z,49.04134125743801
2022-08-17T09:51:23.688Z,48.879044144658906
2022-08-17T09:54:38.612Z,48.687303999896486
2022-08-17T09:57:33.383Z,46.19084715875392
2022-08-17T10:01:27.054Z,46.369988616838256
2022-08-17T10:04:31.211Z,44.433686477922514
2022-08-17T10:12:55.929Z,43.77535458208012
2022-08-17T10:14:55.187Z,46.38812250515885
2022-08-17T10:17:54.549Z,45.935808412031136
2022-08-17T10:31:35.062Z,44.6484306848718
2022-08-17T10:34:38.811Z,44.365690862221925
2022-08-17T10:37:39.806Z,44.52627808643423
2022-08-17T10:41:26.207Z,41.37706437787836
2022-08-17T10:44:38.043Z,42.875813623876354
2022-08-17T10:47:18.119Z,43.8715274263104
2022-08-17T11:01:17.011Z,42.53814048795071
2022-08-17T11:12:37.093Z,39.86910411162938
2022-08-17T11:21:49.524Z,37.71721735696229
2022-08-17T11:41:23.501Z,36.668907980650886
2022-08-17T11:52:13.572Z,35.57632237411364
2022-08-17T12:01:51.193Z,33.18822233140377
2022-08-17T12:11:58.615Z,29.351939565932984
2022-08-17T12:21:41.854Z,29.517381294072415
2022-08-17T12:31:22.544Z,31.3667574055873
2022-08-17T12:41:51.974Z,27.067724872895713
2022-08-17T12:51:16.017Z,28.1555925179687
2022-08-17T13:01:17.159Z,30.97382052032654
2022-08-17T13:11:21.437Z,28.890758053290373
2022-08-17T13:21:24.443Z,28.521585343066196
2022-08-17T13:41:30.279Z,28.38549342052073
2022-08-17T13:51:25.563Z,28.97288579080699
2022-08-17T14:01:34.643Z,28.95206419260612
2022-08-17T14:11:16.997Z,27.316704866893097
2022-08-17T14:21:16.259Z,28.806564454313534
2022-08-17T14:31:16.478Z,27.183617645979663
2022-08-17T14:41:20.047Z,26.214180300646703
2022-08-17T14:51:16.775Z,27.62830409725104
2022-08-17T15:01:15.993Z,28.021465341785927
2022-08-17T15:11:16.732Z,30.32101352977455
2022-08-17T15:21:15.983Z,28.402649912058344
2022-08-17T15:31:18.190Z,30.796874009910024
2022-08-17T15:41:18.532Z,29.55048004212519
2022-08-17T15:51:18.962Z,28.433746397847997
2022-08-17T16:01:31.331Z,28.11242616709584
2022-08-17T16:11:17.260Z,26.916330364517528
2022-08-17T16:31:16.924Z,28.404325166353356
2022-08-17T16:41:40.647Z,31.31709005049615
2022-08-17T17:01:15.947Z,32.7353585091788
2022-08-17T17:11:23.394Z,33.293021249954435
2022-08-17T17:21:29.189Z,36.37597778907448
2022-08-17T17:31:19.520Z,38.621188502970426
2022-08-17T18:41:19.220Z,44.24930377027793
2022-08-17T18:44:24.066Z,44.763468110718044
2022-08-17T18:47:18.646Z,44.63914822872265
2022-08-17T18:51:41.482Z,45.944791626703456
2022-08-17T18:54:20.934Z,45.3472817302739
2022-08-17T18:57:28.804Z,45.39946892853279
2022-08-17T19:01:18.553Z,45.659358394139176
2022-08-17T19:04:34.039Z,45.92502093911532
2022-08-17T19:07:26.289Z,46.57934902783288
2022-08-17T19:11:22.709Z,46.738529582145425
2022-08-17T19:14:20.135Z,46.749460941482255
2022-08-17T19:17:23.387Z,46.80203115295885
2022-08-17T19:21:22.223Z,48.27824349793987
2022-08-17T19:24:21.600Z,48.054699538723334
2022-08-17T19:27:21.866Z,48.17729995290285
2022-08-17T19:31:23.446Z,48.38823864780133
2022-08-17T19:34:34.117Z,48.500647833876464
2022-08-17T19:41:42.933Z,48.93021583571305
2022-08-17T20:01:25.332Z,50.063564811962166
2022-08-17T20:04:32.430Z,49.70469577318064
2022-08-17T20:07:21.034Z,50.69029658913181
2022-08-17T20:11:23.103Z,51.45300319044824
2022-08-17T20:14:20.977Z,51.56336499204767
2022-08-17T20:17:16.870Z,51.60563354334654
2022-08-17T20:21:27.617Z,52.451127319099
2022-08-17T20:24:24.816Z,53.295604923627224
2022-08-17T20:27:22.868Z,53.247730239635025
2022-08-17T20:31:51.152Z,53.10015578542829
2022-08-17T20:34:34.972Z,53.71061855257963
2022-08-17T20:37:33.987Z,54.12408616557272
2022-08-17T20:41:17.020Z,53.84417730546225
2022-08-17T20:44:31.362Z,54.81770155907591
2022-08-17T20:47:23.836Z,55.57801134993023
2022-08-17T20:51:24.978Z,56.660554703837285
2022-08-17T21:11:57.159Z,59.20644457555609
2022-08-17T21:14:29.376Z,59.914343035539346
2022-08-17T21:17:33.569Z,60.00093133940946
2022-08-17T21:21:25.660Z,60.79196292387953
2022-08-17T21:24:31.293Z,60.59655021961068
2022-08-17T21:27:28.900Z,60.607971705908575
2022-08-17T21:31:35.297Z,60.16955809345481
2022-08-17T21:34:33.655Z,60.07765759567774
2022-08-17T21:41:25.287Z,57.79189595528214
2022-08-17T21:44:31.155Z,57.69369673709151
2022-08-17T21:47:23.766Z,57.913271231333695
2022-08-17T21:51:19.254Z,57.96147479226061
2022-08-17T21:54:34.478Z,58.69257478807747
2022-08-17T21:57:20.443Z,59.08274439728497
2022-08-17T22:01:24.699Z,59.439383320797134
2022-08-17T22:04:23.533Z,59.338729976723684
2022-08-17T22:07:34.398Z,59.31701753169004
2022-08-17T22:11:16.857Z,58.9996719678373
2022-08-17T22:14:17.737Z,58.89828753312499
2022-08-17T22:17:21.220Z,59.47927374616803
2022-08-17T22:21:16.977Z,58.839577529738094
2022-08-17T22:24:18.309Z,59.53752749295921
2022-08-17T22:27:18.675Z,60.024211380484445
2022-08-17T22:31:18.227Z,59.90280152366028
2022-08-17T22:34:17.228Z,59.865727413639576
2022-08-17T22:37:27.731Z,60.92647044935778
2022-08-17T22:41:26.267Z,60.316695773313185
2022-08-17T22:44:22.841Z,59.85045085106653
2022-08-17T22:47:30.064Z,60.547045190411
2022-08-17T22:51:20.219Z,61.08119152453554
2022-08-17T23:01:26.402Z,62.04656443659559
2022-08-17T23:04:31.907Z,63.273478644176336
2022-08-17T23:07:18.704Z,62.824691318819156
2022-08-17T23:11:15.809Z,62.45432381835504
2022-08-17T23:14:17.813Z,63.00718298281075
2022-08-17T23:17:16.561Z,63.169788463229274
2022-08-17T23:21:26.431Z,63.71796153223886
2022-08-17T23:24:20.782Z,64.12728040720253
2022-08-17T23:27:17.645Z,64.23070146831249
2022-08-17T23:41:38.110Z,65.87444924902023
2022-08-17T23:51:20.965Z,66.7626160440591
2022-08-17T23:54:22.645Z,66.83413058483008
2022-08-17T23:57:19.015Z,67.93531944209842
